Time;durP1;ratioP1;P1;durP2;ratioP2;P2;SDS_P1;SDS_P2;PMS_P1;PMS_P2;Temp;Humidity;BMP_temperature;BMP_pressure;BME280_temperature;BME280_humidity;BME280_pressure;Samples;Min_cycle;Max_cycle;Signal;HPM_P1;HPM_P2
2022/09/26 00:01:22;;;;;;;20.05;17.05;;;;;;;11.23;82.73;96515.81;1583564;90;25966;-75
2022/09/26 00:03:52;;;;;;;20.20;16.37;;;;;;;11.25;82.72;96516.37;1611654;89;27487;-75
2022/09/26 00:06:20;;;;;;;19.65;16.17;;;;;;;11.26;82.74;96512.61;1583515;90;25975;-74
2022/09/26 00:08:49;;;;;;;17.80;15.43;;;;;;;11.27;82.73;96515.08;1611784;89;25876;-75
2022/09/26 00:11:20;;;;;;;17.15;15.30;;;;;;;11.28;82.75;96515.90;1583527;90;26501;-75
2022/09/26 00:13:54;;;;;;;17.67;14.93;;;;;;;11.29;82.67;96512.14;1611996;89;25857;-74
2022/09/26 00:16:21;;;;;;;19.15;15.70;;;;;;;11.27;82.64;96516.43;1581562;90;27433;-75
2022/09/26 00:18:51;;;;;;;18.25;15.25;;;;;;;11.26;82.64;96516.13;1611723;89;25847;-75
2022/09/26 00:21:19;;;;;;;19.85;14.78;;;;;;;11.27;82.65;96508.85;1543718;92;25808;-76
2022/09/26 00:23:46;;;;;;;17.42;14.43;;;;;;;11.25;82.64;96508.27;1535771;92;26269;-76
2022/09/26 00:26:15;;;;;;;16.97;15.20;;;;;;;11.26;82.62;96509.38;1544159;92;25659;-76
2022/09/26 00:28:42;;;;;;;17.92;14.78;;;;;;;11.22;82.56;96498.78;1544088;92;27403;-75
2022/09/26 00:31:17;;;;;;;19.17;15.20;;;;;;;11.15;82.48;96496.19;1543866;92;25778;-75
2022/09/26 00:33:43;;;;;;;19.40;13.72;;;;;;;11.14;82.55;96487.78;1514091;94;26880;-75
2022/09/26 00:36:10;;;;;;;16.50;14.43;;;;;;;11.15;82.57;96488.08;1538644;93;25679;-75
2022/09/26 00:38:37;;;;;;;17.48;15.55;;;;;;;11.14;82.52;96483.73;1550788;92;25772;-76
2022/09/26 00:41:05;;;;;;;20.92;15.28;;;;;;;11.11;82.50;96473.40;1591394;88;27592;-76
2022/09/26 00:43:51;;;;;;;18.77;14.83;;;;;;;11.07;82.49;96473.60;1638284;87;25811;-76
2022/09/26 00:46:35;;;;;;;21.10;14.68;;;;;;;11.03;82.50;96472.42;1587286;90;25832;-75
2022/09/26 00:49:31;;;;;;;19.07;15.20;;;;;;;11.01;82.57;96462.91;1587686;90;26530;-75
2022/09/26 00:52:12;;;;;;;18.50;14.38;;;;;;;10.95;82.55;96465.22;1587476;90;25905;-75
2022/09/26 00:54:44;;;;;;;19.45;13.90;;;;;;;10.93;82.63;96468.16;1582398;90;27406;-75
2022/09/26 00:57:16;;;;;;;19.55;13.75;;;;;;;10.90;82.53;96460.52;1581446;90;25914;-76
2022/09/26 00:59:49;;;;;;;20.25;14.45;;;;;;;10.87;82.45;96465.59;1533238;92;25786;-75
2022/09/26 01:02:17;;;;;;;17.55;13.68;;;;;;;10.80;82.39;96469.22;1533280;93;25573;-74
2022/09/26 01:04:46;;;;;;;16.48;14.47;;;;;;;10.73;82.37;96469.05;1533230;93;25768;-76
2022/09/26 01:07:20;;;;;;;17.20;13.70;;;;;;;10.69;82.48;96470.04;1532897;92;27456;-75
2022/09/26 01:09:47;;;;;;;16.20;13.83;;;;;;;10.68;82.58;96460.30;1540305;93;25567;-75
2022/09/26 01:12:16;;;;;;;15.53;13.58;;;;;;;10.69;82.58;96458.42;1540342;93;25692;-75
2022/09/26 01:14:44;;;;;;;16.45;14.47;;;;;;;10.67;82.58;96454.60;1540265;93;25917;-76
2022/09/26 01:17:11;;;;;;;17.05;14.38;;;;;;;10.69;82.58;96453.02;1540400;91;25926;-75
2022/09/26 01:20:00;;;;;;;15.28;13.32;;;;;;;10.69;82.53;96447.09;1540156;91;27458;-76
2022/09/26 01:22:49;;;;;;;14.98;11.88;;;;;;;10.67;82.40;96443.81;1540071;91;25844;-76
2022/09/26 01:25:38;;;;;;;17.25;13.03;;;;;;;10.63;82.35;96448.55;1572511;89;25822;-75
2022/09/26 01:28:49;;;;;;;15.95;12.98;;;;;;;10.54;82.35;96445.39;1549984;91;26554;-75
2022/09/26 01:31:21;;;;;;;17.27;15.32;;;;;;;10.45;82.49;96438.70;1525643;92;25936;-75
2022/09/26 01:34:11;;;;;;;20.77;16.15;;;;;;;10.39;82.70;96442.32;1481574;96;27612;-75
2022/09/26 01:37:04;;;;;;;17.73;15.80;;;;;;;10.38;82.83;96448.80;1468640;95;25904;-77
2022/09/26 01:39:37;;;;;;;;;;;;;;;10.35;82.91;96443.34;1471250;95;25918;-76
2022/09/26 01:42:12;;;;;;;15.90;14.20;;;;;;;10.30;83.16;96436.45;1515855;94;26377;-75
2022/09/26 01:44:50;;;;;;;16.90;12.98;;;;;;;10.28;83.20;96435.86;1506062;95;25791;-74
2022/09/26 01:47:41;;;;;;;16.27;13.65;;;;;;;10.33;83.27;96431.95;1507981;95;27428;-76
2022/09/26 01:50:28;;;;;;;17.52;14.40;;;;;;;10.35;83.24;96432.55;1534861;91;25871;-75
2022/09/26 01:53:06;;;;;;;18.17;12.70;;;;;;;10.35;83.19;96431.20;1567121;91;25333;-75
2022/09/26 01:55:41;;;;;;;20.77;13.78;;;;;;;10.35;83.21;96436.59;1554342;90;25871;-76
2022/09/26 01:58:19;;;;;;;14.98;12.82;;;;;;;10.39;83.19;96435.05;1578410;89;25553;-76
2022/09/26 02:00:49;;;;;;;15.03;12.98;;;;;;;10.42;83.11;96434.59;1575674;90;27471;-75
2022/09/26 02:03:26;;;;;;;18.10;13.75;;;;;;;10.45;83.08;96428.73;1578284;89;25540;-76
2022/09/26 02:05:58;;;;;;;16.42;13.35;;;;;;;10.46;83.03;96424.16;1576257;88;25836;-76
2022/09/26 02:08:41;;;;;;;15.57;13.23;;;;;;;10.46;83.00;96416.89;1596783;89;26421;-75
2022/09/26 02:11:12;;;;;;;18.25;13.28;;;;;;;10.44;82.99;96412.78;1596489;88;25930;-76
2022/09/26 02:14:01;;;;;;;17.23;13.37;;;;;;;10.45;83.03;96407.16;1621673;86;27448;-76
2022/09/26 02:16:50;;;;;;;18.82;13.00;;;;;;;10.45;83.02;96408.50;1663495;86;25752;-76
2022/09/26 02:19:31;;;;;;;15.48;12.07;;;;;;;10.41;82.96;96411.36;1663756;86;25855;-76
2022/09/26 02:21:59;;;;;;;17.77;11.80;;;;;;;10.40;83.01;96404.85;1658302;86;25908;-75
2022/09/26 02:24:27;;;;;;;16.30;13.00;;;;;;;10.41;83.01;96400.58;1649834;86;25500;-75
2022/09/26 02:26:54;;;;;;;15.78;12.43;;;;;;;10.43;82.99;96402.52;1649882;86;27318;-76
2022/09/26 02:29:21;;;;;;;16.42;12.25;;;;;;;10.42;82.99;96400.87;1649856;86;25746;-75
2022/09/26 02:31:55;;;;;;;15.32;12.15;;;;;;;10.43;82.98;96394.95;1704468;83;25732;-75
2022/09/26 02:34:24;;;;;;;15.63;13.05;;;;;;;10.42;82.99;96388.73;1720691;83;26720;-75
2022/09/26 02:36:53;;;;;;;13.68;12.18;;;;;;;10.44;82.95;96393.89;1720659;83;25795;-76
2022/09/26 02:39:19;;;;;;;15.83;12.75;;;;;;;10.44;82.93;96393.37;1720380;83;27446;-76
2022/09/26 02:41:57;;;;;;;16.80;12.40;;;;;;;10.45;82.93;96390.97;1720921;83;25799;-75
2022/09/26 02:45:09;;;;;;;14.23;12.15;;;;;;;10.41;82.86;96387.61;1653533;86;25841;-75
2022/09/26 02:48:13;;;;;;;14.58;12.10;;;;;;;10.39;82.88;96387.84;1633227;87;25846;-74
2022/09/26 02:51:32;;;;;;;14.10;11.10;;;;;;;10.36;82.98;96384.28;1602420;88;25815;-75
2022/09/26 02:54:26;;;;;;;16.45;11.12;;;;;;;10.35;82.99;96375.90;1611163;86;27496;-75
2022/09/26 02:57:16;;;;;;;14.95;11.08;;;;;;;10.31;83.01;96380.64;1660776;86;25909;-76
2022/09/26 03:00:03;;;;;;;13.70;11.35;;;;;;;10.27;83.14;96374.06;1652306;86;25811;-76
2022/09/26 03:02:50;;;;;;;14.38;12.23;;;;;;;10.24;83.18;96369.98;1556210;92;26494;-76
2022/09/26 03:05:29;;;;;;;14.68;11.73;;;;;;;10.23;83.27;96370.20;1556869;92;25834;-75
2022/09/26 03:08:01;;;;;;;15.00;12.73;;;;;;;10.24;83.27;96372.67;1574136;91;27486;-75
2022/09/26 03:10:31;;;;;;;17.85;12.88;;;;;;;10.26;83.32;96369.22;1574449;91;25839;-76
2022/09/26 03:13:05;;;;;;;14.28;12.03;;;;;;;10.30;83.35;96370.90;1574330;91;25825;-76
2022/09/26 03:15:36;;;;;;;17.00;12.15;;;;;;;10.33;83.33;96373.95;1574333;91;26509;-76
2022/09/26 03:18:08;;;;;;;13.68;11.85;;;;;;;10.35;83.30;96366.45;1574386;91;25852;-76
2022/09/26 03:20:35;;;;;;;16.87;13.83;;;;;;;10.37;83.29;96357.61;1574530;91;28224;-76
2022/09/26 03:23:03;;;;;;;13.25;11.53;;;;;;;10.27;83.23;96329.03;1610927;87;25736;-75
2022/09/26 03:25:30;;;;;;;15.28;11.57;;;;;;;10.40;83.25;96350.37;1636626;87;26009;-75
2022/09/26 03:27:57;;;;;;;13.15;11.60;;;;;;;10.39;83.23;96351.42;1636759;87;26491;-75
2022/09/26 03:30:24;;;;;;;16.62;13.95;;;;;;;10.39;83.28;96350.60;1614948;87;25809;-76
2022/09/26 03:32:50;;;;;;;18.90;13.72;;;;;;;10.40;83.31;96350.37;1636455;87;27590;-76
2022/09/26 03:35:17;;;;;;;16.35;13.50;;;;;;;10.42;83.33;96348.27;1636821;87;25809;-76
2022/09/26 03:37:44;;;;;;;15.23;12.68;;;;;;;10.44;83.27;96339.41;1636944;87;25820;-76
2022/09/26 03:40:12;;;;;;;16.95;13.30;;;;;;;10.45;83.25;96342.40;1732818;80;25752;-77
2022/09/26 03:42:39;;;;;;;18.05;13.80;;;;;;;10.43;83.26;96336.94;1772185;80;25693;-77
2022/09/26 03:45:09;;;;;;;16.55;13.22;;;;;;;10.43;83.34;96337.77;1771828;80;27400;-77
2022/09/26 03:47:37;;;;;;;15.48;12.60;;;;;;;10.42;83.36;96332.08;1772318;80;25445;-77
2022/09/26 03:50:05;;;;;;;16.93;13.85;;;;;;;10.42;83.35;96323.98;1772096;80;25760;-78
2022/09/26 03:52:32;;;;;;;16.20;13.68;;;;;;;10.45;83.34;96328.91;1768709;81;25837;-76
2022/09/26 03:54:59;;;;;;;16.97;13.13;;;;;;;10.45;83.33;96326.22;1768846;81;25892;-76
2022/09/26 03:57:25;;;;;;;16.97;13.50;;;;;;;10.46;83.34;96331.91;1768860;80;28151;-76
2022/09/26 03:59:54;;;;;;;20.12;14.15;;;;;;;10.48;83.35;96325.45;1769042;80;25847;-76
2022/09/26 04:02:21;;;;;;;17.40;14.13;;;;;;;10.49;83.32;96325.75;1769070;81;25784;-76
2022/09/26 04:04:48;;;;;;;18.45;13.20;;;;;;;10.49;83.31;96329.80;1768954;80;25823;-76
2022/09/26 04:07:15;;;;;;;17.25;13.83;;;;;;;10.49;83.36;96323.05;1769108;80;25831;-75
2022/09/26 04:09:41;;;;;;;16.20;13.13;;;;;;;10.51;83.39;96333.05;1768996;80;27347;-77
2022/09/26 04:12:08;;;;;;;15.08;13.25;;;;;;;10.53;83.38;96325.55;1768985;80;26524;-75
2022/09/26 04:14:34;;;;;;;15.15;12.82;;;;;;;10.55;83.36;96330.18;1769073;81;25689;-76
2022/09/26 04:17:01;;;;;;;14.80;12.40;;;;;;;10.54;83.32;96325.84;1769144;81;26486;-77
2022/09/26 04:19:28;;;;;;;14.30;12.03;;;;;;;10.55;83.35;96324.78;1768893;80;26131;-75
2022/09/26 04:21:54;;;;;;;14.78;11.85;;;;;;;10.53;83.40;96325.55;1769054;80;27356;-76
2022/09/26 04:24:21;;;;;;;15.65;12.58;;;;;;;10.50;83.46;96313.38;1768668;80;25701;-76
2022/09/26 04:26:48;;;;;;;15.80;12.75;;;;;;;10.47;83.49;96309.80;1768759;81;25717;-77
2022/09/26 04:29:15;;;;;;;15.72;12.45;;;;;;;10.45;83.53;96310.03;1769189;80;26452;-77
2022/09/26 04:31:42;;;;;;;18.12;13.20;;;;;;;10.45;83.63;96313.25;1768909;81;25795;-77
2022/09/26 04:34:10;;;;;;;17.70;14.13;;;;;;;10.44;83.70;96315.66;1768744;81;27551;-75
2022/09/26 04:36:38;;;;;;;17.10;13.03;;;;;;;10.44;83.70;96325.92;1768886;80;25673;-75
2022/09/26 04:39:05;;;;;;;16.80;13.00;;;;;;;10.45;83.73;96322.17;1769044;80;25684;-76
2022/09/26 04:41:33;;;;;;;16.93;13.22;;;;;;;10.48;83.75;96322.23;1768698;80;25779;-76
2022/09/26 04:44:00;;;;;;;16.87;12.43;;;;;;;10.50;83.70;96319.30;1769241;81;25845;-77
2022/09/26 04:46:29;;;;;;;13.90;11.78;;;;;;;10.51;83.65;96314.98;1769004;81;27372;-76
2022/09/26 04:48:58;;;;;;;14.05;12.55;;;;;;;10.52;83.71;96317.16;1768637;81;25665;-77
2022/09/26 04:51:27;;;;;;;16.57;13.22;;;;;;;10.54;83.74;96316.39;1769052;80;25760;-76
2022/09/26 04:53:54;;;;;;;16.07;13.13;;;;;;;10.55;83.70;96315.34;1768970;81;25743;-75
2022/09/26 04:56:24;;;;;;;17.62;14.05;;;;;;;10.58;83.75;96310.83;1768689;81;25678;-75
2022/09/26 04:58:54;;;;;;;16.87;14.43;;;;;;;10.59;83.69;96315.98;1769107;81;27064;-76
2022/09/26 05:01:21;;;;;;;25.32;17.25;;;;;;;10.60;83.64;96311.41;1768970;80;25851;-76
2022/09/26 05:03:48;;;;;;;27.50;18.00;;;;;;;10.61;83.64;96310.36;1769021;80;25745;-75
2022/09/26 05:06:16;;;;;;;24.40;18.40;;;;;;;10.61;83.63;96313.88;1769000;80;25708;-76
2022/09/26 05:08:47;;;;;;;21.10;17.67;;;;;;;10.60;83.62;96314.94;1768970;80;25666;-77
2022/09/26 05:11:17;;;;;;;20.70;17.00;;;;;;;10.58;83.60;96308.12;1769228;80;28196;-76
2022/09/26 05:13:44;;;;;;;24.47;17.92;;;;;;;10.58;83.71;96302.73;1768923;81;25713;-77
2022/09/26 05:16:13;;;;;;;20.15;16.95;;;;;;;10.56;83.69;96309.71;1769138;80;25659;-77
2022/09/26 05:18:40;;;;;;;22.37;18.20;;;;;;;10.57;83.73;96306.48;1769003;80;25783;-78
2022/09/26 05:21:07;;;;;;;20.10;16.80;;;;;;;10.57;83.78;96301.09;1769056;80;25700;-77
2022/09/26 05:26:31;;;;;;;18.15;16.17;;;;;;;10.58;83.88;96303.55;1768764;80;25256;-78
2022/09/26 05:29:00;;;;;;;17.48;15.23;;;;;;;10.59;83.85;96298.45;1769940;80;25688;-77
2022/09/26 05:31:29;;;;;;;19.45;16.73;;;;;;;10.60;83.83;96297.92;1768592;81;25752;-76
2022/09/26 05:33:56;;;;;;;20.10;17.48;;;;;;;10.62;83.83;96297.16;1769171;80;25749;-75
2022/09/26 05:36:24;;;;;;;23.70;19.82;;;;;;;10.62;83.85;96297.98;1769044;81;27434;-75
2022/09/26 05:38:51;;;;;;;20.27;17.92;;;;;;;10.62;83.93;96295.81;1768912;80;25822;-76
2022/09/26 05:41:21;;;;;;;21.42;18.23;;;;;;;10.59;84.01;96294.41;1769086;81;25675;-77
2022/09/26 05:43:48;;;;;;;23.70;18.52;;;;;;;10.60;84.04;96287.13;1769211;80;26480;-77
2022/09/26 05:46:15;;;;;;;23.95;17.17;;;;;;;10.62;84.00;96286.36;1769231;80;25752;-77
2022/09/26 05:48:42;;;;;;;19.77;17.57;;;;;;;10.63;84.05;96286.63;1769256;80;28134;-76
2022/09/26 05:51:15;;;;;;;23.00;18.17;;;;;;;10.62;84.14;96285.02;1768792;80;25721;-77
2022/09/26 05:53:45;;;;;;;20.75;18.20;;;;;;;10.61;84.27;96283.38;1768905;80;25734;-76
2022/09/26 05:56:14;;;;;;;22.80;18.12;;;;;;;10.63;84.32;96278.00;1781566;80;25726;-76
2022/09/26 05:58:41;;;;;;;22.37;18.77;;;;;;;10.67;84.36;96280.53;1786518;80;25752;-76
2022/09/26 06:01:11;;;;;;;25.43;18.87;;;;;;;10.69;84.36;96278.41;1786446;80;27390;-76
2022/09/26 06:03:43;;;;;;;24.30;18.75;;;;;;;10.71;84.37;96278.18;1786494;80;25669;-76
2022/09/26 06:06:17;;;;;;;23.85;19.52;;;;;;;10.74;84.34;96275.01;1786237;80;25700;-76
2022/09/26 06:08:45;;;;;;;23.60;20.10;;;;;;;10.78;84.32;96280.20;1786414;80;26255;-76
2022/09/26 06:11:17;;;;;;;24.43;19.30;;;;;;;10.80;84.35;96284.83;1786363;80;25798;-76
2022/09/26 06:13:46;;;;;;;26.73;19.65;;;;;;;10.81;84.35;96279.72;1786261;80;26070;-76
2022/09/26 06:16:19;;;;;;;25.65;20.15;;;;;;;10.83;84.32;96274.91;1786157;80;25696;-77
2022/09/26 06:18:49;;;;;;;25.08;19.92;;;;;;;10.83;84.32;96270.34;1786562;80;25792;-76
2022/09/26 06:21:18;;;;;;;29.37;20.50;;;;;;;10.85;84.30;96269.28;1786342;80;25700;-77
2022/09/26 06:23:45;;;;;;;26.45;19.62;;;;;;;10.87;84.32;96266.60;1786445;80;25648;-77
2022/09/26 06:26:24;;;;;;;23.45;19.45;;;;;;;10.87;84.41;96272.00;1786248;80;28255;-77
2022/09/26 06:29:01;;;;;;;23.70;19.25;;;;;;;10.89;84.50;96271.23;1786556;80;25767;-77
2022/09/26 06:31:29;;;;;;;23.35;17.87;;;;;;;10.93;84.49;96260.25;1786411;80;25739;-77
2022/09/26 06:33:55;;;;;;;24.20;18.05;;;;;;;10.96;84.49;96258.43;1786494;80;25751;-77
2022/09/26 06:36:23;;;;;;;24.98;20.02;;;;;;;10.99;84.45;96261.97;1786597;80;25675;-77
2022/09/26 06:38:50;;;;;;;19.77;16.87;;;;;;;11.03;84.46;96256.39;1786202;80;28241;-77
2022/09/26 06:41:18;;;;;;;26.02;18.50;;;;;;;11.05;84.46;96265.08;1786427;80;25191;-77
2022/09/26 06:43:45;;;;;;;26.95;17.40;;;;;;;11.07;84.43;96267.01;1786813;80;25780;-77
2022/09/26 06:46:14;;;;;;;21.35;17.92;;;;;;;11.08;84.34;96263.25;1786146;80;25735;-77
2022/09/26 06:48:42;;;;;;;21.07;17.80;;;;;;;11.11;84.36;96257.34;1786165;80;25745;-76
2022/09/26 06:51:12;;;;;;;23.80;18.07;;;;;;;11.14;84.42;96262.27;1786630;80;27353;-76
2022/09/26 06:53:38;;;;;;;24.75;18.45;;;;;;;11.17;84.42;96253.69;1782312;80;25973;-76
2022/09/26 06:56:05;;;;;;;22.80;19.50;;;;;;;11.18;84.38;96261.25;1776541;79;26711;-76
2022/09/26 06:58:33;;;;;;;27.02;20.80;;;;;;;11.22;84.36;96262.95;1768816;81;25798;-77
2022/09/26 07:00:59;;;;;;;23.62;18.92;;;;;;;11.25;84.31;96265.14;1769253;81;25773;-76
2022/09/26 07:03:27;;;;;;;24.32;19.37;;;;;;;11.26;84.22;96267.61;1769038;81;27379;-77
2022/09/26 07:05:55;;;;;;;23.15;19.00;;;;;;;11.27;84.21;96268.42;1769056;80;25824;-77
2022/09/26 07:08:22;;;;;;;20.48;18.12;;;;;;;11.25;84.26;96267.84;1768849;80;26728;-76
2022/09/26 07:10:49;;;;;;;24.40;18.25;;;;;;;11.26;84.36;96261.38;1768790;80;25735;-77
2022/09/26 07:13:16;;;;;;;21.27;16.62;;;;;;;11.28;84.33;96266.02;1768792;80;25498;-77
2022/09/26 07:15:46;;;;;;;20.35;17.52;;;;;;;11.29;84.26;96269.01;1768964;80;27455;-77
2022/09/26 07:18:13;;;;;;;19.02;16.20;;;;;;;11.29;84.19;96263.60;1720143;82;25722;-78
2022/09/26 07:20:45;;;;;;;20.00;17.37;;;;;;;11.28;84.17;96259.26;1693024;83;25806;-77
2022/09/26 07:23:10;;;;;;;20.90;17.07;;;;;;;11.27;84.16;96258.97;1686771;84;25879;-77
2022/09/26 07:25:38;;;;;;;18.25;16.35;;;;;;;11.28;84.28;96261.96;1690206;84;25754;-77
2022/09/26 07:28:06;;;;;;;18.73;16.73;;;;;;;11.28;84.36;96259.26;1690361;84;26866;-77
2022/09/26 07:30:33;;;;;;;20.12;15.32;;;;;;;11.30;84.43;96258.48;1686524;84;25790;-77
2022/09/26 07:33:02;;;;;;;18.65;16.55;;;;;;;11.31;84.49;96254.20;1690237;84;25751;-77
2022/09/26 07:35:34;;;;;;;18.17;16.17;;;;;;;11.29;84.40;96261.72;1690217;84;26553;-77
2022/09/26 07:38:03;;;;;;;16.60;14.78;;;;;;;11.31;84.50;96261.48;1690566;84;25937;-78
2022/09/26 07:40:30;;;;;;;16.05;14.35;;;;;;;11.34;84.46;96249.67;1690393;84;27462;-78
2022/09/26 07:43:01;;;;;;;17.70;15.68;;;;;;;11.39;84.44;96248.91;1690278;84;25755;-77
2022/09/26 07:50:59;;;;;;;16.97;15.05;;;;;;;11.46;84.45;96238.25;1687577;84;26047;-77
2022/09/26 07:53:27;;;;;;;23.52;16.48;;;;;;;11.44;84.44;96244.43;1690138;84;27384;-77
2022/09/26 07:56:09;;;;;;;24.70;16.37;;;;;;;11.48;84.50;96242.03;1689352;84;26114;-77
2022/09/26 07:58:38;;;;;;;20.75;15.80;;;;;;;11.53;84.49;96240.78;1689642;84;25762;-76
2022/09/26 08:01:12;;;;;;;22.15;15.63;;;;;;;11.57;84.56;96239.23;1689670;84;25825;-77
2022/09/26 08:03:42;;;;;;;20.00;16.12;;;;;;;11.63;84.68;96235.53;1689725;84;25923;-76
2022/09/26 08:06:11;;;;;;;22.25;16.82;;;;;;;11.71;84.66;96236.47;1691644;84;27423;-76
2022/09/26 08:08:40;;;;;;;19.23;15.53;;;;;;;11.80;84.67;96235.03;1692050;84;25779;-76
2022/09/26 08:11:15;;;;;;;19.20;15.03;;;;;;;11.87;84.72;96231.62;1691833;84;25743;-76
2022/09/26 08:13:43;;;;;;;17.62;14.70;;;;;;;11.99;84.65;96223.94;1623903;88;26418;-76
2022/09/26 08:16:13;;;;;;;17.10;14.60;;;;;;;12.08;84.56;96221.08;1602991;88;25386;-76
2022/09/26 08:18:39;;;;;;;18.48;15.95;;;;;;;12.13;84.46;96225.22;1625106;88;27426;-76
2022/09/26 08:21:06;;;;;;;19.40;16.30;;;;;;;12.20;84.51;96223.14;1624883;88;25977;-76
2022/09/26 08:23:34;;;;;;;18.60;16.50;;;;;;;12.24;84.42;96225.11;1624795;88;25876;-76
2022/09/26 08:26:05;;;;;;;18.95;15.98;;;;;;;12.31;84.35;96230.89;1624852;88;25852;-77
2022/09/26 08:28:36;;;;;;;16.37;14.68;;;;;;;12.36;84.29;96234.46;1625027;88;25355;-77
2022/09/26 08:31:04;;;;;;;17.85;14.80;;;;;;;12.39;84.15;96228.56;1600919;89;28287;-79
2022/09/26 08:33:34;;;;;;;16.12;14.07;;;;;;;12.42;84.13;96237.53;1600810;89;25587;-77
2022/09/26 08:36:06;;;;;;;15.15;13.25;;;;;;;12.46;84.13;96232.42;1601180;89;25331;-78
2022/09/26 08:38:37;;;;;;;16.35;13.83;;;;;;;12.48;84.05;96233.81;1601085;89;26448;-78
2022/09/26 08:41:31;;;;;;;15.50;13.38;;;;;;;12.44;83.93;96239.42;1601117;89;25869;-77
2022/09/26 08:44:25;;;;;;;17.67;14.45;;;;;;;12.45;83.88;96237.01;1600890;89;27443;-77
2022/09/26 08:47:04;;;;;;;18.05;14.83;;;;;;;12.44;83.87;96244.84;1600955;89;25820;-76
2022/09/26 08:50:10;;;;;;;18.67;14.73;;;;;;;12.42;83.94;96241.59;1591035;90;25924;-77
2022/09/26 08:52:48;;;;;;;19.98;15.75;;;;;;;12.41;83.88;96241.30;1616928;88;25864;-78
2022/09/26 08:55:34;;;;;;;17.00;14.68;;;;;;;12.41;83.86;96240.48;1592865;89;25868;-80
2022/09/26 09:01:01;;;;;;;18.00;15.80;;;;;;;12.37;83.81;96255.05;1596398;89;25835;-83
2022/09/26 09:03:39;;;;;;;21.00;16.62;;;;;;;12.37;83.86;96252.34;1607788;88;25858;-82
2022/09/26 09:06:12;;;;;;;19.77;16.42;;;;;;;12.37;83.86;96248.81;1611961;88;25900;-83
2022/09/26 09:08:49;;;;;;;21.68;16.32;;;;;;;12.36;83.84;96253.41;1626800;86;25883;-86
2022/09/26 09:11:56;;;;;;;18.07;14.73;;;;;;;12.36;83.83;96256.11;1626894;87;28211;-87
2022/09/26 09:14:31;;;;;;;16.12;13.90;;;;;;;12.36;83.81;96248.53;1623036;87;25773;-87
2022/09/26 09:17:23;;;;;;;16.25;14.60;;;;;;;12.29;83.81;96243.31;1612988;88;25812;-87
2022/09/26 09:20:01;;;;;;;15.80;14.20;;;;;;;12.27;83.83;96244.09;1599621;89;25864;-85
2022/09/26 09:22:48;;;;;;;20.68;16.17;;;;;;;12.28;83.91;96238.14;1623539;87;25841;-84
2022/09/26 09:25:34;;;;;;;18.25;15.53;;;;;;;12.30;83.88;96236.83;1596307;89;27415;-85
2022/09/26 09:28:24;;;;;;;16.93;14.65;;;;;;;12.30;83.88;96238.19;1601863;89;25763;-84
2022/09/26 09:31:00;;;;;;;15.98;13.40;;;;;;;12.30;83.95;96240.08;1580741;90;25419;-83
2022/09/26 09:33:50;;;;;;;15.00;13.25;;;;;;;12.26;83.93;96235.69;1526659;92;25822;-82
2022/09/26 09:36:25;;;;;;;14.45;12.78;;;;;;;12.25;84.03;96240.81;1538044;93;26064;-85
2022/09/26 09:38:53;;;;;;;15.85;13.08;;;;;;;12.26;84.09;96231.62;1478468;96;28157;-84
2022/09/26 09:41:31;;;;;;;16.48;14.70;;;;;;;12.27;84.10;96230.56;1480663;96;25812;-85
2022/09/26 09:44:05;;;;;;;17.00;14.18;;;;;;;12.29;84.09;96237.90;1476871;95;25872;-86
2022/09/26 09:46:39;;;;;;;24.07;16.30;;;;;;;12.29;84.09;96237.90;1409786;99;26020;-88
2022/09/26 09:49:24;;;;;;;18.25;16.23;;;;;;;12.24;84.10;96241.88;1394578;102;25938;-86
2022/09/26 09:52:32;;;;;;;22.07;18.12;;;;;;;12.20;84.13;96240.73;1407568;99;26939;-86
2022/09/26 09:55:22;;;;;;;19.07;15.85;;;;;;;12.21;84.21;96236.95;1432538;99;25973;-87
2022/09/26 09:57:57;;;;;;;21.57;15.53;;;;;;;12.21;84.24;96232.90;1429829;99;25863;-89
2022/09/26 10:00:26;;;;;;;21.12;15.53;;;;;;;12.22;84.22;96238.59;1435662;99;25926;-88
2022/09/26 10:03:17;;;;;;;18.70;16.07;;;;;;;12.21;84.20;96236.95;1438050;99;25856;-85
2022/09/26 10:05:49;;;;;;;20.82;17.50;;;;;;;12.21;84.23;96236.42;1437799;99;27490;-83
2022/09/26 10:11:32;;;;;;;16.07;12.80;;;;;;;12.23;84.36;96244.30;1359072;104;26004;-87
2022/09/26 10:14:04;;;;;;;15.88;13.20;;;;;;;12.23;84.38;96243.77;1354783;104;25968;-86
2022/09/26 10:16:33;;;;;;;16.67;12.63;;;;;;;12.23;84.46;96252.41;1358840;104;26028;-87
2022/09/26 10:19:06;;;;;;;13.58;11.38;;;;;;;12.21;84.47;96250.48;1386111;102;27493;-89
2022/09/26 10:21:42;;;;;;;13.40;12.05;;;;;;;12.23;84.45;96253.77;1392077;101;25906;-88
2022/09/26 10:24:33;;;;;;;16.23;14.53;;;;;;;12.23;84.45;96242.94;1374877;102;25940;-89
2022/09/26 10:26:58;;;;;;;16.02;14.28;;;;;;;12.23;84.47;96246.47;1390879;100;25942;-86
2022/09/26 10:29:37;;;;;;;16.45;14.75;;;;;;;12.24;84.48;96250.81;1415697;100;25888;-87
2022/09/26 10:32:04;;;;;;;16.50;13.72;;;;;;;12.25;84.50;96242.98;1404694;100;28149;-87
2022/09/26 10:34:34;;;;;;;14.03;12.53;;;;;;;12.28;84.53;96243.55;1408438;101;25932;-87
2022/09/26 10:37:24;;;;;;;15.23;11.95;;;;;;;12.28;84.54;96240.31;1490728;95;25994;-87
2022/09/26 10:42:46;;;;;;;22.60;18.55;;;;;;;12.34;84.60;96242.54;1517843;89;25854;-86
2022/09/26 10:45:20;;;;;;;22.65;17.48;;;;;;;12.28;84.63;96240.31;1594799;89;27281;-86
2022/09/26 10:47:50;;;;;;;20.90;15.58;;;;;;;12.29;84.69;96239.25;1593276;89;25842;-84
2022/09/26 10:50:23;;;;;;;17.67;13.60;;;;;;;12.33;84.73;96239.55;1595180;88;25324;-84
2022/09/26 10:52:54;;;;;;;14.85;12.50;;;;;;;12.35;84.68;96242.83;1576415;90;25853;-84
2022/09/26 10:55:31;;;;;;;18.77;12.87;;;;;;;12.36;84.75;96239.88;1574603;90;25830;-84
2022/09/26 10:58:04;;;;;;;17.00;11.43;;;;;;;12.40;84.88;96239.67;1570228;89;28224;-84
2022/09/26 11:00:38;;;;;;;12.13;10.82;;;;;;;12.44;84.93;96239.42;1569955;91;25880;-84
2022/09/26 11:03:10;;;;;;;11.85;10.48;;;;;;;12.49;84.93;96238.16;1575744;90;25825;-85
2022/09/26 11:05:55;;;;;;;11.20;10.00;;;;;;;12.52;84.92;96234.95;1570904;90;26523;-84
2022/09/26 11:08:31;;;;;;;9.38;8.43;;;;;;;12.58;84.99;96229.87;1581524;88;25970;-83
2022/09/26 11:11:03;;;;;;;9.33;8.35;;;;;;;12.67;84.97;96227.55;1604130;89;27579;-82
2022/09/26 11:13:41;;;;;;;14.50;8.10;;;;;;;12.78;85.00;96227.95;1586560;89;25874;-83
2022/09/26 11:16:12;;;;;;;10.63;9.30;;;;;;;12.90;84.85;96226.45;1607177;89;25785;-82
2022/09/26 11:18:57;;;;;;;12.18;10.93;;;;;;;12.97;84.67;96227.06;1608573;89;25836;-82
2022/09/26 11:21:36;;;;;;;11.68;10.40;;;;;;;13.09;84.86;96223.67;1672388;83;25751;-81
2022/09/26 11:24:11;;;;;;;10.55;9.45;;;;;;;13.19;84.87;96214.84;1712663;83;26858;-81
2022/09/26 11:27:19;;;;;;;10.48;8.83;;;;;;;13.29;84.84;96214.40;1704465;83;25781;-82
2022/09/26 11:30:18;;;;;;;9.73;7.70;;;;;;;13.41;84.71;96210.70;1733777;81;25825;-80
2022/09/26 11:32:46;;;;;;;7.00;6.00;;;;;;;13.52;84.84;96197.55;1709539;83;25840;-82
2022/09/26 11:35:34;;;;;;;5.90;5.30;;;;;;;13.64;85.05;96197.61;1696376;84;26142;-81
2022/09/26 11:38:24;;;;;;;7.15;6.45;;;;;;;13.75;84.85;96193.64;1696522;84;27376;-82
2022/09/26 11:40:58;;;;;;;5.28;4.75;;;;;;;13.86;84.64;96194.80;1689103;84;25846;-81
2022/09/26 11:43:52;;;;;;;5.37;4.87;;;;;;;14.03;84.40;96194.62;1642492;87;25467;-81
2022/09/26 11:46:55;;;;;;;5.90;4.50;;;;;;;14.28;84.66;96185.27;1642276;87;25897;-80
2022/09/26 11:50:14;;;;;;;5.62;4.70;;;;;;;14.60;84.69;96178.39;1651972;86;26845;-79
2022/09/26 11:53:14;;;;;;;4.35;3.95;;;;;;;14.69;83.35;96179.50;1660536;86;27398;-78
2022/09/26 11:56:14;;;;;;;4.62;3.70;;;;;;;14.77;83.01;96175.44;1631531;87;25844;-77
2022/09/26 11:59:12;;;;;;;2.85;2.60;;;;;;;14.79;82.47;96165.13;1637125;86;25872;-78
2022/09/26 12:02:21;;;;;;;3.10;2.80;;;;;;;14.85;82.59;96171.40;1638186;86;26474;-78
2022/09/26 12:04:59;;;;;;;2.50;2.30;;;;;;;14.88;82.23;96171.66;1621179;88;25752;-77
2022/09/26 12:07:50;;;;;;;2.50;2.30;;;;;;;14.98;82.14;96168.14;1617034;88;28389;-77
2022/09/26 12:10:40;;;;;;;2.42;2.20;;;;;;;15.05;81.95;96166.81;1583062;89;25727;-78